sensor_id;sensor_type;location;lat;lon;timestamp;P1;durP1;ratioP1;P2;durP2;ratioP2
33381;SDS011;21342;48.786;9.166;2022-11-20T00:00:08;17.50;;;9.67;;
33381;SDS011;21342;48.786;9.166;2022-11-20T00:02:38;11.97;;;9.87;;
33381;SDS011;21342;48.786;9.166;2022-11-20T00:05:05;12.27;;;10.60;;
33381;SDS011;21342;48.786;9.166;2022-11-20T00:07:33;11.37;;;10.17;;
33381;SDS011;21342;48.786;9.166;2022-11-20T00:10:01;10.60;;;9.50;;
33381;SDS011;21342;48.786;9.166;2022-11-20T00:12:28;11.07;;;9.17;;
33381;SDS011;21342;48.786;9.166;2022-11-20T00:14:55;12.93;;;9.87;;
33381;SDS011;21342;48.786;9.166;2022-11-20T00:17:22;15.17;;;9.70;;
33381;SDS011;21342;48.786;9.166;2022-11-20T00:19:51;10.23;;;7.63;;
33381;SDS011;21342;48.786;9.166;2022-11-20T00:22:18;7.87;;;7.17;;
33381;SDS011;21342;48.786;9.166;2022-11-20T00:24:46;10.57;;;7.50;;
33381;SDS011;21342;48.786;9.166;2022-11-20T00:27:13;9.33;;;6.97;;
33381;SDS011;21342;48.786;9.166;2022-11-20T00:29:40;7.17;;;5.67;;
33381;SDS011;21342;48.786;9.166;2022-11-20T00:32:07;7.47;;;6.17;;
33381;SDS011;21342;48.786;9.166;2022-11-20T00:34:35;5.50;;;5.10;;
33381;SDS011;21342;48.786;9.166;2022-11-20T00:37:03;5.87;;;4.57;;
33381;SDS011;21342;48.786;9.166;2022-11-20T00:39:31;5.87;;;5.33;;
33381;SDS011;21342;48.786;9.166;2022-11-20T00:41:58;6.23;;;5.10;;
33381;SDS011;21342;48.786;9.166;2022-11-20T00:44:25;5.00;;;4.50;;
33381;SDS011;21342;48.786;9.166;2022-11-20T00:46:52;5.30;;;4.80;;
33381;SDS011;21342;48.786;9.166;2022-11-20T00:49:20;5.97;;;5.30;;
33381;SDS011;21342;48.786;9.166;2022-11-20T00:51:47;4.97;;;4.57;;
33381;SDS011;21342;48.786;9.166;2022-11-20T00:54:16;5.00;;;4.60;;
33381;SDS011;21342;48.786;9.166;2022-11-20T00:56:43;5.80;;;4.13;;
33381;SDS011;21342;48.786;9.166;2022-11-20T00:59:10;6.00;;;4.23;;
33381;SDS011;21342;48.786;9.166;2022-11-20T01:01:38;5.73;;;4.10;;
33381;SDS011;21342;48.786;9.166;2022-11-20T01:04:05;6.03;;;4.73;;
33381;SDS011;21342;48.786;9.166;2022-11-20T01:06:33;7.23;;;4.73;;
33381;SDS011;21342;48.786;9.166;2022-11-20T01:09:02;4.87;;;4.13;;
33381;SDS011;21342;48.786;9.166;2022-11-20T01:11:34;5.33;;;4.10;;
33381;SDS011;21342;48.786;9.166;2022-11-20T01:14:03;5.20;;;4.17;;
33381;SDS011;21342;48.786;9.166;2022-11-20T01:16:32;6.27;;;4.30;;
33381;SDS011;21342;48.786;9.166;2022-11-20T01:19:02;4.83;;;4.43;;
33381;SDS011;21342;48.786;9.166;2022-11-20T01:21:31;5.50;;;4.57;;
33381;SDS011;21342;48.786;9.166;2022-11-20T01:24:00;4.80;;;4.10;;
33381;SDS011;21342;48.786;9.166;2022-11-20T01:26:29;6.50;;;4.27;;
33381;SDS011;21342;48.786;9.166;2022-11-20T01:29:00;4.90;;;4.33;;
33381;SDS011;21342;48.786;9.166;2022-11-20T01:31:29;5.83;;;4.57;;
33381;SDS011;21342;48.786;9.166;2022-11-20T01:33:58;4.93;;;4.23;;
33381;SDS011;21342;48.786;9.166;2022-11-20T01:36:27;4.37;;;3.93;;
33381;SDS011;21342;48.786;9.166;2022-11-20T01:38:56;5.83;;;5.00;;
33381;SDS011;21342;48.786;9.166;2022-11-20T01:41:26;4.53;;;4.13;;
33381;SDS011;21342;48.786;9.166;2022-11-20T01:44:13;4.90;;;3.93;;
33381;SDS011;21342;48.786;9.166;2022-11-20T01:46:45;4.13;;;3.80;;
33381;SDS011;21342;48.786;9.166;2022-11-20T01:49:21;4.00;;;3.67;;
33381;SDS011;21342;48.786;9.166;2022-11-20T01:51:54;7.00;;;4.10;;
33381;SDS011;21342;48.786;9.166;2022-11-20T01:54:25;4.50;;;3.53;;
33381;SDS011;21342;48.786;9.166;2022-11-20T01:56:57;4.73;;;3.67;;
33381;SDS011;21342;48.786;9.166;2022-11-20T01:59:28;3.30;;;3.00;;
33381;SDS011;21342;48.786;9.166;2022-11-20T02:01:56;3.63;;;3.33;;
33381;SDS011;21342;48.786;9.166;2022-11-20T02:04:24;4.00;;;3.70;;
33381;SDS011;21342;48.786;9.166;2022-11-20T02:06:57;5.00;;;4.00;;
33381;SDS011;21342;48.786;9.166;2022-11-20T02:09:27;3.50;;;3.20;;
33381;SDS011;21342;48.786;9.166;2022-11-20T02:11:54;4.50;;;4.10;;
33381;SDS011;21342;48.786;9.166;2022-11-20T02:14:22;5.93;;;3.67;;
33381;SDS011;21342;48.786;9.166;2022-11-20T02:16:51;3.90;;;3.60;;
33381;SDS011;21342;48.786;9.166;2022-11-20T02:19:21;4.30;;;3.97;;
33381;SDS011;21342;48.786;9.166;2022-11-20T02:21:53;4.43;;;3.47;;
33381;SDS011;21342;48.786;9.166;2022-11-20T02:24:28;4.73;;;4.20;;
33381;SDS011;21342;48.786;9.166;2022-11-20T02:26:56;5.13;;;3.80;;
33381;SDS011;21342;48.786;9.166;2022-11-20T02:29:26;4.93;;;4.37;;
33381;SDS011;21342;48.786;9.166;2022-11-20T02:32:03;4.53;;;3.33;;
33381;SDS011;21342;48.786;9.166;2022-11-20T02:34:30;4.07;;;3.70;;
33381;SDS011;21342;48.786;9.166;2022-11-20T02:36:57;3.70;;;3.40;;
33381;SDS011;21342;48.786;9.166;2022-11-20T02:39:27;3.30;;;3.10;;
33381;SDS011;21342;48.786;9.166;2022-11-20T02:41:55;3.60;;;3.30;;
33381;SDS011;21342;48.786;9.166;2022-11-20T02:44:23;4.70;;;4.30;;
33381;SDS011;21342;48.786;9.166;2022-11-20T02:46:50;3.20;;;2.90;;
33381;SDS011;21342;48.786;9.166;2022-11-20T02:49:17;4.53;;;3.30;;
33381;SDS011;21342;48.786;9.166;2022-11-20T02:51:45;5.30;;;4.30;;
33381;SDS011;21342;48.786;9.166;2022-11-20T02:54:12;3.90;;;3.60;;
33381;SDS011;21342;48.786;9.166;2022-11-20T02:56:41;4.63;;;3.67;;
33381;SDS011;21342;48.786;9.166;2022-11-20T02:59:08;3.30;;;3.10;;
33381;SDS011;21342;48.786;9.166;2022-11-20T03:01:36;4.10;;;3.53;;
33381;SDS011;21342;48.786;9.166;2022-11-20T03:04:03;3.80;;;3.50;;
33381;SDS011;21342;48.786;9.166;2022-11-20T03:06:31;3.87;;;3.57;;
33381;SDS011;21342;48.786;9.166;2022-11-20T03:08:58;3.47;;;3.17;;
33381;SDS011;21342;48.786;9.166;2022-11-20T03:11:26;3.40;;;3.10;;
33381;SDS011;21342;48.786;9.166;2022-11-20T03:13:54;3.67;;;3.37;;
33381;SDS011;21342;48.786;9.166;2022-11-20T03:16:22;5.40;;;3.43;;
33381;SDS011;21342;48.786;9.166;2022-11-20T03:18:50;3.60;;;3.00;;
33381;SDS011;21342;48.786;9.166;2022-11-20T03:21:19;4.40;;;4.00;;
33381;SDS011;21342;48.786;9.166;2022-11-20T03:23:46;4.27;;;3.90;;
33381;SDS011;21342;48.786;9.166;2022-11-20T03:26:15;4.10;;;3.80;;
33381;SDS011;21342;48.786;9.166;2022-11-20T03:28:46;3.87;;;3.47;;
33381;SDS011;21342;48.786;9.166;2022-11-20T03:31:16;5.53;;;3.90;;
33381;SDS011;21342;48.786;9.166;2022-11-20T03:33:44;3.87;;;3.57;;
33381;SDS011;21342;48.786;9.166;2022-11-20T03:36:13;4.50;;;4.20;;
33381;SDS011;21342;48.786;9.166;2022-11-20T03:38:41;3.30;;;3.00;;
33381;SDS011;21342;48.786;9.166;2022-11-20T03:41:09;3.93;;;3.63;;
33381;SDS011;21342;48.786;9.166;2022-11-20T03:43:38;4.20;;;3.80;;
33381;SDS011;21342;48.786;9.166;2022-11-20T03:46:06;4.13;;;3.43;;
33381;SDS011;21342;48.786;9.166;2022-11-20T03:48:35;8.57;;;4.17;;
33381;SDS011;21342;48.786;9.166;2022-11-20T03:51:06;4.40;;;4.10;;
33381;SDS011;21342;48.786;9.166;2022-11-20T03:53:35;6.20;;;4.23;;
33381;SDS011;21342;48.786;9.166;2022-11-20T03:56:02;5.20;;;4.60;;
33381;SDS011;21342;48.786;9.166;2022-11-20T03:58:30;5.87;;;4.67;;
33381;SDS011;21342;48.786;9.166;2022-11-20T04:01:03;7.47;;;4.07;;
33381;SDS011;21342;48.786;9.166;2022-11-20T04:03:31;4.40;;;4.00;;
33381;SDS011;21342;48.786;9.166;2022-11-20T04:06:02;5.03;;;4.53;;
33381;SDS011;21342;48.786;9.166;2022-11-20T04:08:30;6.00;;;4.17;;
33381;SDS011;21342;48.786;9.166;2022-11-20T04:11:07;4.70;;;4.27;;
33381;SDS011;21342;48.786;9.166;2022-11-20T04:13:36;5.27;;;3.97;;
33381;SDS011;21342;48.786;9.166;2022-11-20T04:16:03;4.43;;;4.03;;
33381;SDS011;21342;48.786;9.166;2022-11-20T04:18:31;5.23;;;4.70;;
33381;SDS011;21342;48.786;9.166;2022-11-20T04:20:59;4.97;;;4.57;;
33381;SDS011;21342;48.786;9.166;2022-11-20T04:23:28;4.40;;;4.00;;
33381;SDS011;21342;48.786;9.166;2022-11-20T04:26:00;5.93;;;3.97;;
33381;SDS011;21342;48.786;9.166;2022-11-20T04:28:28;4.30;;;3.90;;
33381;SDS011;21342;48.786;9.166;2022-11-20T04:31:01;4.70;;;4.30;;
33381;SDS011;21342;48.786;9.166;2022-11-20T04:33:29;4.40;;;4.00;;
33381;SDS011;21342;48.786;9.166;2022-11-20T04:35:59;5.33;;;4.43;;
33381;SDS011;21342;48.786;9.166;2022-11-20T04:38:29;5.03;;;4.43;;
33381;SDS011;21342;48.786;9.166;2022-11-20T04:40:57;5.67;;;4.63;;
33381;SDS011;21342;48.786;9.166;2022-11-20T04:43:25;6.37;;;4.77;;
33381;SDS011;21342;48.786;9.166;2022-11-20T04:45:52;5.27;;;4.87;;
33381;SDS011;21342;48.786;9.166;2022-11-20T04:48:20;4.20;;;3.80;;
33381;SDS011;21342;48.786;9.166;2022-11-20T04:50:48;5.20;;;4.80;;
33381;SDS011;21342;48.786;9.166;2022-11-20T04:53:15;4.47;;;4.07;;
33381;SDS011;21342;48.786;9.166;2022-11-20T04:55:44;5.30;;;4.00;;
33381;SDS011;21342;48.786;9.166;2022-11-20T04:58:12;4.33;;;3.93;;
33381;SDS011;21342;48.786;9.166;2022-11-20T05:00:39;4.97;;;4.37;;
33381;SDS011;21342;48.786;9.166;2022-11-20T05:03:07;4.40;;;4.00;;
33381;SDS011;21342;48.786;9.166;2022-11-20T05:05:34;4.67;;;4.27;;
33381;SDS011;21342;48.786;9.166;2022-11-20T05:08:02;4.73;;;4.33;;
33381;SDS011;21342;48.786;9.166;2022-11-20T05:10:29;7.87;;;4.70;;
33381;SDS011;21342;48.786;9.166;2022-11-20T05:12:58;5.40;;;4.90;;
33381;SDS011;21342;48.786;9.166;2022-11-20T05:15:25;6.77;;;5.00;;
33381;SDS011;21342;48.786;9.166;2022-11-20T05:17:52;7.57;;;4.90;;
33381;SDS011;21342;48.786;9.166;2022-11-20T05:20:20;4.60;;;4.20;;
33381;SDS011;21342;48.786;9.166;2022-11-20T05:22:47;5.20;;;4.20;;
33381;SDS011;21342;48.786;9.166;2022-11-20T05:25:14;5.17;;;4.03;;
33381;SDS011;21342;48.786;9.166;2022-11-20T05:27:42;5.07;;;4.50;;
33381;SDS011;21342;48.786;9.166;2022-11-20T05:30:11;5.23;;;4.43;;
33381;SDS011;21342;48.786;9.166;2022-11-20T05:32:39;4.20;;;3.80;;
33381;SDS011;21342;48.786;9.166;2022-11-20T05:35:07;4.23;;;3.80;;
33381;SDS011;21342;48.786;9.166;2022-11-20T05:37:34;5.07;;;3.97;;
33381;SDS011;21342;48.786;9.166;2022-11-20T05:40:01;3.97;;;3.57;;
33381;SDS011;21342;48.786;9.166;2022-11-20T05:42:30;3.73;;;3.43;;
33381;SDS011;21342;48.786;9.166;2022-11-20T05:44:57;4.50;;;4.10;;
33381;SDS011;21342;48.786;9.166;2022-11-20T05:47:27;4.87;;;4.47;;
33381;SDS011;21342;48.786;9.166;2022-11-20T05:49:57;4.40;;;4.00;;
33381;SDS011;21342;48.786;9.166;2022-11-20T05:52:24;4.50;;;4.20;;
33381;SDS011;21342;48.786;9.166;2022-11-20T05:54:54;4.20;;;3.80;;
33381;SDS011;21342;48.786;9.166;2022-11-20T05:57:22;5.63;;;3.87;;
33381;SDS011;21342;48.786;9.166;2022-11-20T05:59:49;4.20;;;3.73;;
33381;SDS011;21342;48.786;9.166;2022-11-20T06:02:16;7.30;;;4.17;;
33381;SDS011;21342;48.786;9.166;2022-11-20T06:04:45;6.80;;;3.90;;
33381;SDS011;21342;48.786;9.166;2022-11-20T06:07:12;3.67;;;3.37;;
33381;SDS011;21342;48.786;9.166;2022-11-20T06:09:40;4.23;;;3.80;;
33381;SDS011;21342;48.786;9.166;2022-11-20T06:12:07;4.00;;;3.40;;
33381;SDS011;21342;48.786;9.166;2022-11-20T06:14:34;3.47;;;3.17;;
33381;SDS011;21342;48.786;9.166;2022-11-20T06:17:01;3.60;;;3.30;;
33381;SDS011;21342;48.786;9.166;2022-11-20T06:19:29;4.53;;;3.80;;
33381;SDS011;21342;48.786;9.166;2022-11-20T06:21:57;4.00;;;3.60;;
33381;SDS011;21342;48.786;9.166;2022-11-20T06:24:25;3.93;;;3.23;;
33381;SDS011;21342;48.786;9.166;2022-11-20T06:26:52;6.17;;;3.80;;
33381;SDS011;21342;48.786;9.166;2022-11-20T06:29:19;4.77;;;4.23;;
33381;SDS011;21342;48.786;9.166;2022-11-20T06:31:47;4.00;;;3.70;;
33381;SDS011;21342;48.786;9.166;2022-11-20T06:34:14;4.57;;;4.00;;
33381;SDS011;21342;48.786;9.166;2022-11-20T06:36:45;6.23;;;4.07;;
33381;SDS011;21342;48.786;9.166;2022-11-20T06:39:14;3.40;;;3.10;;
33381;SDS011;21342;48.786;9.166;2022-11-20T06:41:41;4.73;;;4.00;;
33381;SDS011;21342;48.786;9.166;2022-11-20T06:44:09;6.77;;;3.60;;
33381;SDS011;21342;48.786;9.166;2022-11-20T06:46:36;3.30;;;3.10;;
33381;SDS011;21342;48.786;9.166;2022-11-20T06:49:03;3.23;;;2.93;;
33381;SDS011;21342;48.786;9.166;2022-11-20T06:51:31;3.20;;;2.90;;
33381;SDS011;21342;48.786;9.166;2022-11-20T06:53:58;3.63;;;3.33;;
33381;SDS011;21342;48.786;9.166;2022-11-20T06:56:27;3.27;;;3.07;;
33381;SDS011;21342;48.786;9.166;2022-11-20T06:58:54;3.23;;;2.93;;
33381;SDS011;21342;48.786;9.166;2022-11-20T07:01:22;3.10;;;2.80;;
33381;SDS011;21342;48.786;9.166;2022-11-20T07:03:49;3.50;;;2.80;;
33381;SDS011;21342;48.786;9.166;2022-11-20T07:06:17;2.80;;;2.60;;
33381;SDS011;21342;48.786;9.166;2022-11-20T07:08:44;3.50;;;2.90;;
33381;SDS011;21342;48.786;9.166;2022-11-20T07:11:12;3.00;;;2.73;;
33381;SDS011;21342;48.786;9.166;2022-11-20T07:13:41;3.80;;;3.50;;
33381;SDS011;21342;48.786;9.166;2022-11-20T07:16:08;3.77;;;3.40;;
33381;SDS011;21342;48.786;9.166;2022-11-20T07:18:36;4.90;;;2.77;;
33381;SDS011;21342;48.786;9.166;2022-11-20T07:21:04;2.93;;;2.73;;
33381;SDS011;21342;48.786;9.166;2022-11-20T07:23:32;3.70;;;3.50;;
33381;SDS011;21342;48.786;9.166;2022-11-20T07:26:02;4.80;;;2.83;;
33381;SDS011;21342;48.786;9.166;2022-11-20T07:28:30;3.00;;;2.80;;
33381;SDS011;21342;48.786;9.166;2022-11-20T07:30:58;3.40;;;2.67;;
33381;SDS011;21342;48.786;9.166;2022-11-20T07:33:26;4.57;;;3.07;;
33381;SDS011;21342;48.786;9.166;2022-11-20T07:35:53;3.30;;;3.00;;
33381;SDS011;21342;48.786;9.166;2022-11-20T07:38:21;3.40;;;3.10;;
33381;SDS011;21342;48.786;9.166;2022-11-20T07:40:48;4.00;;;3.10;;
33381;SDS011;21342;48.786;9.166;2022-11-20T07:43:19;7.63;;;3.50;;
33381;SDS011;21342;48.786;9.166;2022-11-20T07:45:46;4.10;;;3.70;;
33381;SDS011;21342;48.786;9.166;2022-11-20T07:48:15;2.90;;;2.70;;
33381;SDS011;21342;48.786;9.166;2022-11-20T07:50:42;4.63;;;2.40;;
33381;SDS011;21342;48.786;9.166;2022-11-20T07:53:10;3.03;;;2.83;;
33381;SDS011;21342;48.786;9.166;2022-11-20T07:55:38;6.60;;;3.40;;
33381;SDS011;21342;48.786;9.166;2022-11-20T07:58:06;3.23;;;3.03;;
33381;SDS011;21342;48.786;9.166;2022-11-20T08:00:33;3.33;;;3.13;;
33381;SDS011;21342;48.786;9.166;2022-11-20T08:03:02;3.67;;;3.37;;
33381;SDS011;21342;48.786;9.166;2022-11-20T08:05:31;2.93;;;2.73;;
33381;SDS011;21342;48.786;9.166;2022-11-20T08:07:58;8.53;;;2.80;;
33381;SDS011;21342;48.786;9.166;2022-11-20T08:10:26;4.33;;;3.93;;
33381;SDS011;21342;48.786;9.166;2022-11-20T08:12:53;3.00;;;2.70;;
33381;SDS011;21342;48.786;9.166;2022-11-20T08:15:38;2.70;;;2.50;;
33381;SDS011;21342;48.786;9.166;2022-11-20T08:18:06;3.43;;;3.23;;
33381;SDS011;21342;48.786;9.166;2022-11-20T08:20:37;4.50;;;2.77;;
33381;SDS011;21342;48.786;9.166;2022-11-20T08:23:05;3.60;;;3.23;;
33381;SDS011;21342;48.786;9.166;2022-11-20T08:25:33;5.30;;;3.17;;
33381;SDS011;21342;48.786;9.166;2022-11-20T08:28:03;2.63;;;2.43;;
33381;SDS011;21342;48.786;9.166;2022-11-20T08:30:32;3.07;;;2.87;;
33381;SDS011;21342;48.786;9.166;2022-11-20T08:33:00;2.57;;;2.37;;
33381;SDS011;21342;48.786;9.166;2022-11-20T08:35:32;3.03;;;2.73;;
33381;SDS011;21342;48.786;9.166;2022-11-20T08:38:02;3.27;;;3.07;;
33381;SDS011;21342;48.786;9.166;2022-11-20T08:40:30;2.90;;;2.70;;
33381;SDS011;21342;48.786;9.166;2022-11-20T08:42:58;3.17;;;2.87;;
33381;SDS011;21342;48.786;9.166;2022-11-20T08:45:25;3.10;;;2.50;;
33381;SDS011;21342;48.786;9.166;2022-11-20T08:47:53;2.93;;;2.70;;
33381;SDS011;21342;48.786;9.166;2022-11-20T08:50:25;2.50;;;2.33;;
33381;SDS011;21342;48.786;9.166;2022-11-20T08:52:53;2.60;;;2.30;;
33381;SDS011;21342;48.786;9.166;2022-11-20T08:55:21;2.10;;;2.00;;
33381;SDS011;21342;48.786;9.166;2022-11-20T08:57:49;3.20;;;2.27;;
33381;SDS011;21342;48.786;9.166;2022-11-20T09:00:16;2.53;;;2.03;;
33381;SDS011;21342;48.786;9.166;2022-11-20T09:02:44;2.40;;;2.20;;
33381;SDS011;21342;48.786;9.166;2022-11-20T09:05:11;2.27;;;2.07;;
33381;SDS011;21342;48.786;9.166;2022-11-20T09:07:38;2.63;;;2.43;;
33381;SDS011;21342;48.786;9.166;2022-11-20T09:10:06;2.33;;;2.13;;
33381;SDS011;21342;48.786;9.166;2022-11-20T09:12:36;3.00;;;2.40;;
33381;SDS011;21342;48.786;9.166;2022-11-20T09:15:04;2.20;;;2.00;;
33381;SDS011;21342;48.786;9.166;2022-11-20T09:17:32;2.00;;;1.90;;
33381;SDS011;21342;48.786;9.166;2022-11-20T09:19:59;2.83;;;2.07;;
33381;SDS011;21342;48.786;9.166;2022-11-20T09:22:26;1.93;;;1.83;;
33381;SDS011;21342;48.786;9.166;2022-11-20T09:24:53;2.30;;;2.10;;
33381;SDS011;21342;48.786;9.166;2022-11-20T09:27:21;2.00;;;1.80;;
33381;SDS011;21342;48.786;9.166;2022-11-20T09:29:50;2.03;;;1.87;;
33381;SDS011;21342;48.786;9.166;2022-11-20T09:32:17;2.70;;;1.90;;
33381;SDS011;21342;48.786;9.166;2022-11-20T09:34:44;2.60;;;2.03;;
33381;SDS011;21342;48.786;9.166;2022-11-20T09:37:11;1.70;;;1.60;;
33381;SDS011;21342;48.786;9.166;2022-11-20T09:39:39;1.50;;;1.40;;
33381;SDS011;21342;48.786;9.166;2022-11-20T09:42:25;2.20;;;1.60;;
33381;SDS011;21342;48.786;9.166;2022-11-20T09:45:09;1.87;;;1.70;;
33381;SDS011;21342;48.786;9.166;2022-11-20T09:48:00;1.67;;;1.57;;
33381;SDS011;21342;48.786;9.166;2022-11-20T09:50:43;1.50;;;1.40;;
33381;SDS011;21342;48.786;9.166;2022-11-20T09:53:18;1.60;;;1.50;;
33381;SDS011;21342;48.786;9.166;2022-11-20T09:55:54;1.57;;;1.47;;
33381;SDS011;21342;48.786;9.166;2022-11-20T09:58:25;1.43;;;1.33;;
33381;SDS011;21342;48.786;9.166;2022-11-20T10:01:00;1.67;;;1.57;;
33381;SDS011;21342;48.786;9.166;2022-11-20T10:03:37;1.60;;;1.50;;
33381;SDS011;21342;48.786;9.166;2022-11-20T10:06:08;2.07;;;1.60;;
33381;SDS011;21342;48.786;9.166;2022-11-20T10:08:42;2.40;;;1.50;;
33381;SDS011;21342;48.786;9.166;2022-11-20T10:11:17;2.93;;;1.73;;
33381;SDS011;21342;48.786;9.166;2022-11-20T10:13:55;1.40;;;1.30;;
33381;SDS011;21342;48.786;9.166;2022-11-20T10:16:35;1.80;;;1.60;;
33381;SDS011;21342;48.786;9.166;2022-11-20T10:19:13;3.70;;;1.70;;
33381;SDS011;21342;48.786;9.166;2022-11-20T10:21:56;1.90;;;1.80;;
33381;SDS011;21342;48.786;9.166;2022-11-20T10:24:39;2.17;;;1.97;;
33381;SDS011;21342;48.786;9.166;2022-11-20T10:27:18;1.60;;;1.50;;
33381;SDS011;21342;48.786;9.166;2022-11-20T10:30:00;2.03;;;1.83;;
33381;SDS011;21342;48.786;9.166;2022-11-20T10:32:32;2.00;;;1.80;;
33381;SDS011;21342;48.786;9.166;2022-11-20T10:35:05;1.77;;;1.67;;
33381;SDS011;21342;48.786;9.166;2022-11-20T10:37:41;2.13;;;1.83;;
33381;SDS011;21342;48.786;9.166;2022-11-20T10:40:17;2.00;;;1.80;;
33381;SDS011;21342;48.786;9.166;2022-11-20T10:42:48;2.60;;;1.93;;
33381;SDS011;21342;48.786;9.166;2022-11-20T10:45:25;2.10;;;1.90;;
33381;SDS011;21342;48.786;9.166;2022-11-20T10:48:16;3.37;;;2.03;;
33381;SDS011;21342;48.786;9.166;2022-11-20T10:50:49;2.20;;;1.93;;
33381;SDS011;21342;48.786;9.166;2022-11-20T10:53:33;3.90;;;2.20;;
33381;SDS011;21342;48.786;9.166;2022-11-20T10:56:16;2.27;;;2.07;;
33381;SDS011;21342;48.786;9.166;2022-11-20T10:58:49;2.20;;;1.90;;
33381;SDS011;21342;48.786;9.166;2022-11-20T11:01:28;1.93;;;1.83;;
33381;SDS011;21342;48.786;9.166;2022-11-20T11:03:57;4.50;;;2.50;;
33381;SDS011;21342;48.786;9.166;2022-11-20T11:06:28;4.50;;;1.80;;
33381;SDS011;21342;48.786;9.166;2022-11-20T11:09:01;1.97;;;1.80;;
33381;SDS011;21342;48.786;9.166;2022-11-20T11:11:35;3.20;;;2.00;;
33381;SDS011;21342;48.786;9.166;2022-11-20T11:14:05;2.10;;;2.00;;
33381;SDS011;21342;48.786;9.166;2022-11-20T11:16:33;2.47;;;2.13;;
33381;SDS011;21342;48.786;9.166;2022-11-20T11:19:05;3.00;;;2.73;;
33381;SDS011;21342;48.786;9.166;2022-11-20T11:21:38;2.40;;;2.20;;
33381;SDS011;21342;48.786;9.166;2022-11-20T11:24:15;10.90;;;6.47;;
33381;SDS011;21342;48.786;9.166;2022-11-20T11:26:51;2.63;;;2.43;;
33381;SDS011;21342;48.786;9.166;2022-11-20T11:29:21;2.33;;;2.13;;
33381;SDS011;21342;48.786;9.166;2022-11-20T11:31:48;2.57;;;2.37;;
33381;SDS011;21342;48.786;9.166;2022-11-20T11:34:17;2.67;;;2.20;;
33381;SDS011;21342;48.786;9.166;2022-11-20T11:36:49;2.63;;;2.43;;
33381;SDS011;21342;48.786;9.166;2022-11-20T11:39:21;1.90;;;1.80;;
33381;SDS011;21342;48.786;9.166;2022-11-20T11:41:49;2.43;;;2.23;;
33381;SDS011;21342;48.786;9.166;2022-11-20T11:44:18;2.67;;;2.17;;
33381;SDS011;21342;48.786;9.166;2022-11-20T11:47:04;5.93;;;2.20;;
33381;SDS011;21342;48.786;9.166;2022-11-20T11:49:37;3.37;;;2.33;;
33381;SDS011;21342;48.786;9.166;2022-11-20T11:52:08;2.77;;;2.57;;
33381;SDS011;21342;48.786;9.166;2022-11-20T11:54:41;3.43;;;2.50;;
33381;SDS011;21342;48.786;9.166;2022-11-20T11:57:15;5.53;;;1.83;;
33381;SDS011;21342;48.786;9.166;2022-11-20T11:59:53;2.40;;;2.20;;
33381;SDS011;21342;48.786;9.166;2022-11-20T12:02:32;15.03;;;7.00;;
33381;SDS011;21342;48.786;9.166;2022-11-20T12:05:08;6.83;;;4.60;;
33381;SDS011;21342;48.786;9.166;2022-11-20T12:07:45;7.90;;;4.07;;
33381;SDS011;21342;48.786;9.166;2022-11-20T12:10:16;2.77;;;2.30;;
33381;SDS011;21342;48.786;9.166;2022-11-20T12:12:48;8.77;;;5.50;;
33381;SDS011;21342;48.786;9.166;2022-11-20T12:15:23;3.23;;;2.50;;
33381;SDS011;21342;48.786;9.166;2022-11-20T12:17:55;3.73;;;3.33;;
33381;SDS011;21342;48.786;9.166;2022-11-20T12:20:24;3.93;;;2.27;;
33381;SDS011;21342;48.786;9.166;2022-11-20T12:22:56;4.50;;;2.00;;
33381;SDS011;21342;48.786;9.166;2022-11-20T12:25:31;5.00;;;2.73;;
33381;SDS011;21342;48.786;9.166;2022-11-20T12:28:11;10.63;;;5.30;;
33381;SDS011;21342;48.786;9.166;2022-11-20T12:30:50;6.87;;;2.70;;
33381;SDS011;21342;48.786;9.166;2022-11-20T12:33:42;3.97;;;2.97;;
33381;SDS011;21342;48.786;9.166;2022-11-20T12:36:32;6.20;;;3.20;;
33381;SDS011;21342;48.786;9.166;2022-11-20T12:39:21;2.73;;;2.40;;
33381;SDS011;21342;48.786;9.166;2022-11-20T12:45:12;2.20;;;2.00;;
33381;SDS011;21342;48.786;9.166;2022-11-20T12:47:55;3.00;;;1.70;;
33381;SDS011;21342;48.786;9.166;2022-11-20T12:50:44;2.17;;;1.60;;
33381;SDS011;21342;48.786;9.166;2022-11-20T12:53:22;3.40;;;2.00;;
33381;SDS011;21342;48.786;9.166;2022-11-20T12:55:59;1.80;;;1.70;;
33381;SDS011;21342;48.786;9.166;2022-11-20T12:58:37;1.90;;;1.70;;
33381;SDS011;21342;48.786;9.166;2022-11-20T13:01:12;2.30;;;2.10;;
33381;SDS011;21342;48.786;9.166;2022-11-20T13:04:07;3.10;;;2.00;;
33381;SDS011;21342;48.786;9.166;2022-11-20T13:06:43;3.50;;;1.67;;
33381;SDS011;21342;48.786;9.166;2022-11-20T13:09:13;1.90;;;1.80;;
33381;SDS011;21342;48.786;9.166;2022-11-20T13:11:44;5.77;;;1.57;;
33381;SDS011;21342;48.786;9.166;2022-11-20T13:14:20;2.73;;;2.07;;
33381;SDS011;21342;48.786;9.166;2022-11-20T13:16:55;3.30;;;1.67;;
33381;SDS011;21342;48.786;9.166;2022-11-20T13:19:27;2.03;;;1.43;;
33381;SDS011;21342;48.786;9.166;2022-11-20T13:21:54;3.40;;;1.80;;
33381;SDS011;21342;48.786;9.166;2022-11-20T13:24:24;2.87;;;1.60;;
33381;SDS011;21342;48.786;9.166;2022-11-20T13:27:01;4.40;;;1.70;;
33381;SDS011;21342;48.786;9.166;2022-11-20T13:29:30;2.53;;;1.60;;
33381;SDS011;21342;48.786;9.166;2022-11-20T13:32:02;1.90;;;1.60;;
33381;SDS011;21342;48.786;9.166;2022-11-20T13:34:31;1.80;;;1.70;;
33381;SDS011;21342;48.786;9.166;2022-11-20T13:37:01;2.10;;;1.60;;
33381;SDS011;21342;48.786;9.166;2022-11-20T13:39:32;3.80;;;1.57;;
33381;SDS011;21342;48.786;9.166;2022-11-20T13:42:00;2.27;;;2.07;;
33381;SDS011;21342;48.786;9.166;2022-11-20T13:44:31;1.67;;;1.57;;
33381;SDS011;21342;48.786;9.166;2022-11-20T13:47:03;5.23;;;1.67;;
33381;SDS011;21342;48.786;9.166;2022-11-20T13:49:31;5.53;;;1.77;;
33381;SDS011;21342;48.786;9.166;2022-11-20T13:52:06;5.00;;;1.80;;
33381;SDS011;21342;48.786;9.166;2022-11-20T13:54:57;1.73;;;1.63;;
33381;SDS011;21342;48.786;9.166;2022-11-20T13:57:40;2.00;;;1.80;;
33381;SDS011;21342;48.786;9.166;2022-11-20T14:00:23;1.60;;;1.40;;
33381;SDS011;21342;48.786;9.166;2022-11-20T14:02:57;1.90;;;1.70;;
33381;SDS011;21342;48.786;9.166;2022-11-20T14:05:28;2.27;;;2.07;;
33381;SDS011;21342;48.786;9.166;2022-11-20T14:08:02;1.83;;;1.73;;
33381;SDS011;21342;48.786;9.166;2022-11-20T14:10:33;2.30;;;2.10;;
33381;SDS011;21342;48.786;9.166;2022-11-20T14:13:09;1.90;;;1.60;;
33381;SDS011;21342;48.786;9.166;2022-11-20T14:15:37;2.30;;;2.10;;
33381;SDS011;21342;48.786;9.166;2022-11-20T14:18:11;2.23;;;1.80;;
33381;SDS011;21342;48.786;9.166;2022-11-20T14:20:40;3.87;;;2.70;;
33381;SDS011;21342;48.786;9.166;2022-11-20T14:23:09;2.83;;;1.83;;
33381;SDS011;21342;48.786;9.166;2022-11-20T14:25:38;3.43;;;1.97;;
33381;SDS011;21342;48.786;9.166;2022-11-20T14:28:10;1.97;;;1.80;;
33381;SDS011;21342;48.786;9.166;2022-11-20T14:30:47;4.77;;;1.93;;
33381;SDS011;21342;48.786;9.166;2022-11-20T14:33:15;2.87;;;2.43;;
33381;SDS011;21342;48.786;9.166;2022-11-20T14:35:45;1.90;;;1.70;;
33381;SDS011;21342;48.786;9.166;2022-11-20T14:38:14;2.60;;;2.23;;
33381;SDS011;21342;48.786;9.166;2022-11-20T14:40:45;3.33;;;2.10;;
33381;SDS011;21342;48.786;9.166;2022-11-20T14:43:17;4.13;;;2.23;;
33381;SDS011;21342;48.786;9.166;2022-11-20T14:45:48;3.47;;;2.23;;
33381;SDS011;21342;48.786;9.166;2022-11-20T14:48:26;2.30;;;2.10;;
33381;SDS011;21342;48.786;9.166;2022-11-20T14:50:57;2.43;;;2.23;;
33381;SDS011;21342;48.786;9.166;2022-11-20T14:53:24;2.10;;;1.90;;
33381;SDS011;21342;48.786;9.166;2022-11-20T14:55:58;3.20;;;2.90;;
33381;SDS011;21342;48.786;9.166;2022-11-20T14:58:27;2.60;;;2.40;;
33381;SDS011;21342;48.786;9.166;2022-11-20T15:00:57;3.30;;;1.97;;
33381;SDS011;21342;48.786;9.166;2022-11-20T15:03:30;2.83;;;1.83;;
33381;SDS011;21342;48.786;9.166;2022-11-20T15:05:59;3.23;;;2.13;;
33381;SDS011;21342;48.786;9.166;2022-11-20T15:08:26;2.13;;;1.90;;
33381;SDS011;21342;48.786;9.166;2022-11-20T15:10:54;2.30;;;2.13;;